Time,TemperatureF,DewpointF,PressureIn,WindDirection,WindDirectionDegrees,WindSpeedMPH,WindSpeedGustMPH,Humidity,HourlyPrecipIn,Conditions,Clouds,dailyrainin,SolarRadiationWatts/m^2,SoftwareType,DateUTC
2013-01-27 00:11:00,64.0,-31.0,-100.00,NE,48,0.0,4.0,0,0.00,,,0.17,0.000000,,2013-01-27 10:11:00,
2013-01-27 00:21:00,64.0,-31.0,-100.00,NE,48,0.0,4.0,0,0.00,,,0.17,0.000000,,2013-01-27 10:21:00,
2013-01-27 00:31:00,64.0,-31.0,-100.00,NE,48,0.0,4.0,0,0.00,,,0.17,0.000000,,2013-01-27 10:31:00,
2013-01-27 00:41:00,64.0,-31.0,-100.00,NE,48,0.0,4.0,0,0.00,,,0.17,0.000000,,2013-01-27 10:41:00,
2013-01-27 00:51:00,65.0,-30.0,-100.00,ENE,70,1.0,6.0,0,0.00,,,0.17,0.000000,,2013-01-27 10:51:00,
2013-01-27 01:21:00,65.0,-30.0,-100.00,ENE,70,1.0,6.0,0,0.00,,,0.17,0.000000,,2013-01-27 11:21:00,
2013-01-27 01:32:00,65.0,-30.0,-100.00,ENE,70,1.0,6.0,0,0.00,,,0.17,0.000000,,2013-01-27 11:32:00,
2013-01-27 01:42:00,65.0,-30.0,-100.00,ENE,70,1.0,6.0,0,0.00,,,0.17,0.000000,,2013-01-27 11:42:00,
2013-01-27 01:51:00,66.0,-29.0,-100.00,SSW,206,2.0,15.0,0,0.00,,,0.17,0.000000,,2013-01-27 11:51:00,
2013-01-27 02:21:00,66.0,-29.0,-100.00,SSW,206,2.0,15.0,0,0.00,,,0.17,0.000000,,2013-01-27 12:21:00,
2013-01-27 02:32:00,66.0,-29.0,-100.00,SSW,206,2.0,15.0,0,0.00,,,0.17,0.000000,,2013-01-27 12:32:00,
2013-01-27 02:42:00,66.0,-29.0,-100.00,SSW,206,2.0,15.0,0,0.00,,,0.17,0.000000,,2013-01-27 12:42:00,
2013-01-27 02:51:00,66.0,-29.0,-100.00,South,191,3.0,10.0,0,0.00,,,0.17,0.000000,,2013-01-27 12:51:00,
2013-01-27 03:11:00,66.0,-29.0,-100.00,South,191,3.0,10.0,0,0.00,,,0.17,0.000000,,2013-01-27 13:11:00,
2013-01-27 03:22:00,66.0,-29.0,-100.00,South,191,3.0,10.0,0,0.00,,,0.17,0.000000,,2013-01-27 13:22:00,
2013-01-27 03:32:00,66.0,-29.0,-100.00,South,191,3.0,10.0,0,0.00,,,0.17,0.000000,,2013-01-27 13:32:00,
2013-01-27 03:42:00,66.0,-29.0,-100.00,South,191,3.0,10.0,0,0.00,,,0.17,0.000000,,2013-01-27 13:42:00,
2013-01-27 03:51:00,67.0,-29.0,-100.00,NW,326,2.0,13.0,0,0.00,,,0.17,0.000000,,2013-01-27 13:51:00,
2013-01-27 04:11:00,67.0,-29.0,-100.00,NW,326,2.0,13.0,0,0.00,,,0.17,0.000000,,2013-01-27 14:11:00,
2013-01-27 04:22:00,67.0,-29.0,-100.00,NW,326,2.0,13.0,0,0.00,,,0.17,0.000000,,2013-01-27 14:22:00,
2013-01-27 04:32:00,67.0,-29.0,-100.00,NW,326,2.0,13.0,0,0.00,,,0.17,0.000000,,2013-01-27 14:32:00,
2013-01-27 04:42:00,67.0,-29.0,-100.00,NW,326,2.0,13.0,0,0.00,,,0.17,0.000000,,2013-01-27 14:42:00,
2013-01-27 04:51:00,66.0,-29.0,-100.00,NNW,338,1.0,12.0,0,0.00,,,0.17,0.000000,,2013-01-27 14:51:00,
2013-01-27 05:22:00,66.0,-29.0,-100.00,NNW,338,1.0,12.0,0,0.00,,,0.17,0.000000,,2013-01-27 15:22:00,
2013-01-27 05:32:00,66.0,-29.0,-100.00,NNW,338,1.0,12.0,0,0.00,,,0.17,0.000000,,2013-01-27 15:32:00,
2013-01-27 05:42:00,66.0,-29.0,-100.00,NNW,338,1.0,12.0,0,0.00,,,0.17,0.000000,,2013-01-27 15:42:00,
2013-01-27 05:51:00,66.0,-29.0,-100.00,NNE,31,1.0,12.0,0,0.00,,,0.17,0.000000,,2013-01-27 15:51:00,
2013-01-27 06:11:00,66.0,-29.0,-100.00,NNE,31,1.0,12.0,0,0.00,,,0.17,0.000000,,2013-01-27 16:11:00,
2013-01-27 06:21:00,66.0,-29.0,-100.00,NNE,31,1.0,12.0,0,0.00,,,0.17,0.000000,,2013-01-27 16:21:00,
2013-01-27 06:32:00,66.0,-29.0,-100.00,NNE,31,1.0,12.0,0,0.00,,,0.17,0.000000,,2013-01-27 16:32:00,
2013-01-27 06:41:00,66.0,-29.0,-100.00,NNE,31,1.0,12.0,0,0.00,,,0.17,0.000000,,2013-01-27 16:41:00,
2013-01-27 06:51:00,66.0,-29.0,-100.00,East,79,0.0,7.0,0,0.00,,,0.17,0.000000,,2013-01-27 16:51:00,
2013-01-27 07:12:00,66.0,-29.0,-100.00,East,79,0.0,7.0,0,0.00,,,0.17,0.000000,,2013-01-27 17:12:00,
2013-01-27 07:21:00,66.0,-29.0,-100.00,East,79,0.0,7.0,0,0.00,,,0.17,0.000000,,2013-01-27 17:21:00,
2013-01-27 07:32:00,66.0,-29.0,-100.00,East,79,0.0,7.0,0,0.00,,,0.17,0.000000,,2013-01-27 17:32:00,
2013-01-27 07:42:00,66.0,-29.0,-100.00,East,79,0.0,7.0,0,0.00,,,0.17,0.000000,,2013-01-27 17:42:00,
2013-01-27 07:51:00,66.0,-29.0,-100.00,NNW,328,1.0,4.0,0,0.00,,,0.17,3.000000,,2013-01-27 17:51:00,
2013-01-27 08:11:00,66.0,-29.0,-100.00,NNW,328,1.0,4.0,0,0.00,,,0.17,3.000000,,2013-01-27 18:11:00,
2013-01-27 08:22:00,66.0,-29.0,-100.00,NNW,328,1.0,4.0,0,0.00,,,0.17,3.000000,,2013-01-27 18:22:00,
2013-01-27 08:32:00,66.0,-29.0,-100.00,NNW,328,1.0,4.0,0,0.00,,,0.17,3.000000,,2013-01-27 18:32:00,
2013-01-27 08:41:00,66.0,-29.0,-100.00,NNW,328,1.0,4.0,0,0.00,,,0.17,3.000000,,2013-01-27 18:41:00,
2013-01-27 08:51:00,66.0,-29.0,-100.00,SSE,168,0.0,0.0,0,0.00,,,0.17,25.000000,,2013-01-27 18:51:00,
2013-01-27 09:11:00,66.0,-29.0,-100.00,SSE,168,0.0,0.0,0,0.00,,,0.17,25.000000,,2013-01-27 19:11:00,
2013-01-27 09:22:00,66.0,-29.0,-100.00,SSE,168,0.0,0.0,0,0.00,,,0.17,25.000000,,2013-01-27 19:22:00,
2013-01-27 09:32:00,66.0,-29.0,-100.00,SSE,168,0.0,0.0,0,0.00,,,0.17,25.000000,,2013-01-27 19:32:00,
2013-01-27 09:41:00,66.0,-29.0,-100.00,SSE,168,0.0,0.0,0,0.00,,,0.17,25.000000,,2013-01-27 19:41:00,
2013-01-27 09:51:00,68.0,-28.0,-100.00,ENE,77,1.0,6.0,0,0.00,,,0.17,63.000000,,2013-01-27 19:51:00,
2013-01-27 10:11:00,68.0,-28.0,-100.00,ENE,77,1.0,6.0,0,0.00,,,0.17,63.000000,,2013-01-27 20:11:00,
2013-01-27 10:22:00,68.0,-28.0,-100.00,ENE,77,1.0,6.0,0,0.00,,,0.17,63.000000,,2013-01-27 20:22:00,
2013-01-27 10:32:00,68.0,-28.0,-100.00,ENE,77,1.0,6.0,0,0.00,,,0.17,63.000000,,2013-01-27 20:32:00,
2013-01-27 10:41:00,68.0,-28.0,-100.00,ENE,77,1.0,6.0,0,0.00,,,0.17,63.000000,,2013-01-27 20:41:00,
2013-01-27 10:51:00,70.0,-27.0,-100.00,NW,305,2.0,9.0,0,0.00,,,0.17,169.000000,,2013-01-27 20:51:00,
2013-01-27 11:12:00,70.0,-27.0,-100.00,NW,305,2.0,9.0,0,0.00,,,0.17,169.000000,,2013-01-27 21:12:00,
2013-01-27 11:22:00,70.0,-27.0,-100.00,NW,305,2.0,9.0,0,0.00,,,0.17,169.000000,,2013-01-27 21:22:00,
2013-01-27 11:32:00,70.0,-27.0,-100.00,NW,305,2.0,9.0,0,0.00,,,0.17,169.000000,,2013-01-27 21:32:00,
2013-01-27 11:42:00,70.0,-27.0,-100.00,NW,305,2.0,9.0,0,0.00,,,0.17,169.000000,,2013-01-27 21:42:00,
2013-01-27 11:51:00,66.0,-29.0,-100.00,NE,39,1.0,8.0,0,0.06,,,0.23,98.000000,,2013-01-27 21:51:00,
2013-01-27 12:11:00,66.0,-29.0,-100.00,NE,39,1.0,8.0,0,0.06,,,0.23,98.000000,,2013-01-27 22:11:00,
2013-01-27 12:21:00,66.0,-29.0,-100.00,NE,39,1.0,8.0,0,0.06,,,0.23,98.000000,,2013-01-27 22:21:00,
2013-01-27 12:32:00,66.0,-29.0,-100.00,NE,39,1.0,8.0,0,0.06,,,0.23,98.000000,,2013-01-27 22:32:00,
2013-01-27 12:42:00,66.0,-29.0,-100.00,NE,39,1.0,8.0,0,0.06,,,0.23,98.000000,,2013-01-27 22:42:00,
2013-01-27 12:51:00,69.0,-28.0,-100.00,ENE,68,3.0,12.0,0,0.00,,,0.23,167.000000,,2013-01-27 22:51:00,
2013-01-27 13:12:00,69.0,-28.0,-100.00,ENE,68,3.0,12.0,0,0.00,,,0.23,167.000000,,2013-01-27 23:12:00,
2013-01-27 13:21:00,69.0,-28.0,-100.00,ENE,68,3.0,12.0,0,0.00,,,0.23,167.000000,,2013-01-27 23:21:00,
2013-01-27 13:32:00,69.0,-28.0,-100.00,ENE,68,3.0,12.0,0,0.00,,,0.23,167.000000,,2013-01-27 23:32:00,
2013-01-27 13:41:00,69.0,-28.0,-100.00,ENE,68,3.0,12.0,0,0.00,,,0.23,167.000000,,2013-01-27 23:41:00,
2013-01-27 13:51:00,69.0,-28.0,-100.00,WNW,301,2.0,12.0,0,0.00,,,0.12,149.000000,,2013-01-27 23:51:00,
2013-01-27 14:11:00,69.0,-28.0,-100.00,WNW,301,2.0,12.0,0,0.00,,,0.12,149.000000,,2013-01-28 00:11:00,
2013-01-27 14:21:00,69.0,-28.0,-100.00,WNW,301,2.0,12.0,0,0.00,,,0.12,149.000000,,2013-01-28 00:21:00,
2013-01-27 14:32:00,69.0,-28.0,-100.00,WNW,301,2.0,12.0,0,0.00,,,0.12,149.000000,,2013-01-28 00:32:00,
2013-01-27 14:41:00,69.0,-28.0,-100.00,WNW,301,2.0,12.0,0,0.00,,,0.12,149.000000,,2013-01-28 00:41:00,
2013-01-27 14:51:00,67.0,-29.0,-100.00,NW,314,4.0,16.0,0,0.05,,,0.12,113.000000,,2013-01-28 00:51:00,
2013-01-27 15:11:00,67.0,-29.0,-100.00,NW,314,4.0,16.0,0,0.05,,,0.12,113.000000,,2013-01-28 01:11:00,
2013-01-27 15:21:00,67.0,-29.0,-100.00,NW,314,4.0,16.0,0,0.05,,,0.12,113.000000,,2013-01-28 01:21:00,
2013-01-27 15:32:00,67.0,-29.0,-100.00,NW,314,4.0,16.0,0,0.05,,,0.12,113.000000,,2013-01-28 01:32:00,
2013-01-27 15:42:00,67.0,-29.0,-100.00,NW,314,4.0,16.0,0,0.05,,,0.12,113.000000,,2013-01-28 01:42:00,
2013-01-27 15:51:00,63.0,-39.0,-100.00,NW,306,1.0,20.0,1,1.24,,,-99.99,36.000000,,2013-01-28 01:51:00,
2013-01-27 16:11:00,63.0,-39.0,-100.00,NW,306,1.0,20.0,1,1.24,,,-99.99,36.000000,,2013-01-28 02:11:00,
2013-01-27 16:21:00,63.0,-39.0,-100.00,NW,306,1.0,20.0,1,1.24,,,-99.99,36.000000,,2013-01-28 02:21:00,
2013-01-27 16:32:00,63.0,-39.0,-100.00,NW,306,1.0,20.0,1,1.24,,,-99.99,36.000000,,2013-01-28 02:32:00,
2013-01-27 16:41:00,63.0,-39.0,-100.00,NW,306,1.0,20.0,1,1.24,,,-99.99,36.000000,,2013-01-28 02:41:00,
2013-01-27 17:51:00,65.0,2.0,-100.00,WNW,301,2.0,11.0,8,0.11,,,1.64,8.000000,,2013-01-28 03:51:00,
2013-01-27 18:11:00,65.0,2.0,-100.00,WNW,301,2.0,11.0,8,0.11,,,1.64,8.000000,,2013-01-28 04:11:00,
2013-01-27 18:21:00,65.0,2.0,-100.00,WNW,301,2.0,11.0,8,0.11,,,1.64,8.000000,,2013-01-28 04:21:00,
2013-01-27 18:31:00,65.0,2.0,-100.00,WNW,301,2.0,11.0,8,0.11,,,1.64,8.000000,,2013-01-28 04:31:00,
2013-01-27 18:41:00,65.0,2.0,-100.00,WNW,301,2.0,11.0,8,0.11,,,1.64,8.000000,,2013-01-28 04:41:00,
2013-01-27 18:51:00,65.0,5.0,-100.00,East,81,1.0,10.0,9,0.01,,,1.65,0.000000,,2013-01-28 04:51:00,
2013-01-27 19:11:00,65.0,5.0,-100.00,East,81,1.0,10.0,9,0.01,,,1.65,0.000000,,2013-01-28 05:11:00,
2013-01-27 19:21:00,65.0,5.0,-100.00,East,81,1.0,10.0,9,0.01,,,1.65,0.000000,,2013-01-28 05:21:00,
2013-01-27 19:31:00,65.0,5.0,-100.00,East,81,1.0,10.0,9,0.01,,,1.65,0.000000,,2013-01-28 05:31:00,
2013-01-27 19:41:00,65.0,5.0,-100.00,East,81,1.0,10.0,9,0.01,,,1.65,0.000000,,2013-01-28 05:41:00,
2013-01-27 19:51:00,61.0,-1.0,-100.00,East,97,2.0,6.0,8,0.43,,,2.08,0.000000,,2013-01-28 05:51:00,
2013-01-27 20:21:00,61.0,-1.0,-100.00,East,97,2.0,6.0,8,0.43,,,2.08,0.000000,,2013-01-28 06:21:00,
2013-01-27 20:32:00,61.0,-1.0,-100.00,East,97,2.0,6.0,8,0.43,,,2.08,0.000000,,2013-01-28 06:32:00,
2013-01-27 20:42:00,61.0,-1.0,-100.00,East,97,2.0,6.0,8,0.43,,,2.08,0.000000,,2013-01-28 06:42:00,
2013-01-27 20:51:00,60.0,-1.0,-100.00,East,80,0.0,6.0,8,0.35,,,2.43,0.000000,,2013-01-28 06:51:00,
2013-01-27 21:21:00,60.0,-1.0,-100.00,East,80,0.0,6.0,8,0.35,,,2.43,0.000000,,2013-01-28 07:21:00,
2013-01-27 21:31:00,60.0,-1.0,-100.00,East,80,0.0,6.0,8,0.35,,,2.43,0.000000,,2013-01-28 07:31:00,
2013-01-27 21:41:00,60.0,-1.0,-100.00,East,80,0.0,6.0,8,0.35,,,2.43,0.000000,,2013-01-28 07:41:00,
2013-01-27 21:51:00,59.0,0.0,-100.00,ESE,104,1.0,5.0,9,0.22,,,-99.99,0.000000,,2013-01-28 07:51:00,
2013-01-27 22:21:00,59.0,0.0,-100.00,ESE,104,1.0,5.0,9,0.22,,,-99.99,0.000000,,2013-01-28 08:21:00,
2013-01-27 22:32:00,59.0,0.0,-100.00,ESE,104,1.0,5.0,9,0.22,,,-99.99,0.000000,,2013-01-28 08:32:00,
2013-01-27 22:42:00,59.0,0.0,-100.00,ESE,104,1.0,5.0,9,0.22,,,-99.99,0.000000,,2013-01-28 08:42:00,
2013-01-27 22:51:00,59.0,0.0,-100.00,East,95,0.0,6.0,9,0.09,,,2.73,0.000000,,2013-01-28 08:51:00,
2013-01-27 23:11:00,59.0,0.0,-100.00,East,95,0.0,6.0,9,0.09,,,2.73,0.000000,,2013-01-28 09:11:00,
2013-01-27 23:21:00,59.0,0.0,-100.00,East,95,0.0,6.0,9,0.09,,,2.73,0.000000,,2013-01-28 09:21:00,
2013-01-27 23:32:00,59.0,0.0,-100.00,East,95,0.0,6.0,9,0.09,,,2.73,0.000000,,2013-01-28 09:32:00,
2013-01-27 23:41:00,59.0,0.0,-100.00,East,95,0.0,6.0,9,0.09,,,2.73,0.000000,,2013-01-28 09:41:00,
2013-01-27 23:51:00,59.0,0.0,-100.00,ENE,66,0.0,0.0,9,0.01,,,2.74,0.000000,,2013-01-28 09:51:00,